createdAt,value
2017-11-11T00:01:56.412Z,94547.73
2017-11-11T00:04:24.765Z,94550.27
2017-11-11T00:06:53.136Z,94554.58
2017-11-11T00:09:21.484Z,94554.61
2017-11-11T00:11:49.864Z,94553.58
2017-11-11T00:14:18.223Z,94547.77
2017-11-11T00:16:46.566Z,94551.99
2017-11-11T00:19:14.936Z,94555.62
2017-11-11T00:21:43.279Z,94556.91
2017-11-11T00:24:11.637Z,94563.28
2017-11-11T00:26:39.984Z,94562.44
2017-11-11T00:29:08.339Z,94567.67
2017-11-11T00:31:36.725Z,94559.95
2017-11-11T00:34:05.104Z,94567.37
2017-11-11T00:36:33.493Z,94563.28
2017-11-11T00:39:01.855Z,94567.03
2017-11-11T00:41:30.208Z,94574.73
2017-11-11T00:43:58.575Z,94547.71
2017-11-11T00:46:26.920Z,94558.11
2017-11-11T00:48:55.276Z,94565.55
2017-11-11T00:51:23.621Z,94555.38
2017-11-11T00:53:52.020Z,94558.34
2017-11-11T00:56:20.395Z,94563.38
2017-11-11T00:58:48.805Z,94556.70
2017-11-11T01:01:17.159Z,94562.04
2017-11-11T01:03:45.510Z,94559.07
2017-11-11T01:06:13.864Z,94557.20
2017-11-11T01:08:42.255Z,94548.95
2017-11-11T01:11:10.604Z,94550.09
2017-11-11T01:13:38.961Z,94554.88
2017-11-11T01:16:07.320Z,94547.54
2017-11-11T01:18:35.666Z,94545.97
2017-11-11T01:21:04.027Z,94549.11
2017-11-11T01:23:32.369Z,94555.70
2017-11-11T01:26:00.745Z,94540.22
2017-11-11T01:28:29.110Z,94547.83
2017-11-11T01:30:57.459Z,94540.95
2017-11-11T01:33:26.717Z,94540.69
2017-11-11T01:35:55.068Z,94540.55
2017-11-11T01:38:23.460Z,94539.45
2017-11-11T01:40:51.809Z,94531.22
2017-11-11T01:43:20.157Z,94528.66
2017-11-11T01:45:48.503Z,94530.08
2017-11-11T01:48:16.857Z,94536.61
2017-11-11T01:50:45.200Z,94549.21
2017-11-11T01:53:13.603Z,94531.94
2017-11-11T01:55:41.956Z,94542.27
2017-11-11T01:58:10.348Z,94535.05
2017-11-11T02:00:38.735Z,94537.63
2017-11-11T02:03:07.106Z,94532.32
2017-11-11T02:05:35.452Z,94541.17
2017-11-11T02:08:03.825Z,94522.90
2017-11-11T02:10:32.194Z,94527.75
2017-11-11T02:13:00.592Z,94511.78
2017-11-11T02:15:28.985Z,94528.10
2017-11-11T02:17:57.348Z,94525.54
2017-11-11T02:20:25.714Z,94519.42
2017-11-11T02:22:54.097Z,94513.81
2017-11-11T02:25:22.447Z,94513.58
2017-11-11T02:27:50.819Z,94506.61
2017-11-11T02:30:19.200Z,94496.81
2017-11-11T02:32:47.562Z,94501.84
2017-11-11T02:35:15.928Z,94493.02
2017-11-11T02:37:44.286Z,94507.15
2017-11-11T02:40:12.652Z,94498.34
2017-11-11T02:42:41.030Z,94491.56
2017-11-11T02:45:09.393Z,94495.22
2017-11-11T02:47:37.777Z,94491.07
2017-11-11T02:50:06.174Z,94491.28
2017-11-11T02:52:34.545Z,94482.89
2017-11-11T02:55:02.962Z,94485.05
2017-11-11T02:57:31.322Z,94478.53
2017-11-11T02:59:59.691Z,94481.84
2017-11-11T03:02:28.064Z,94479.48
2017-11-11T03:04:56.437Z,94476.45
2017-11-11T03:07:24.781Z,94479.03
2017-11-11T03:09:53.140Z,94482.45
2017-11-11T03:12:21.486Z,94473.75
2017-11-11T03:14:49.858Z,94482.20
2017-11-11T03:17:18.212Z,94469.47
2017-11-11T03:19:46.609Z,94475.97
2017-11-11T03:22:15.110Z,94458.50
2017-11-11T03:24:43.463Z,94456.48
2017-11-11T03:27:11.836Z,94462.16
2017-11-11T03:29:40.188Z,94474.58
2017-11-11T03:32:08.552Z,94475.36
2017-11-11T03:34:36.947Z,94474.03
2017-11-11T03:37:05.307Z,94471.47
2017-11-11T03:39:33.672Z,94464.75
2017-11-11T03:42:02.024Z,94462.61
2017-11-11T03:44:30.431Z,94465.08
2017-11-11T03:46:58.771Z,94459.09
2017-11-11T03:49:27.195Z,94465.61
2017-11-11T03:51:55.570Z,94447.00
2017-11-11T03:54:23.948Z,94441.77
2017-11-11T03:56:52.326Z,94438.35
2017-11-11T03:59:20.687Z,94431.80
2017-11-11T04:01:49.155Z,94426.18
2017-11-11T04:04:17.521Z,94426.88
2017-11-11T04:06:45.901Z,94431.30
2017-11-11T04:09:14.300Z,94422.28
2017-11-11T04:11:42.654Z,94424.84
2017-11-11T04:14:11.056Z,94416.70
2017-11-11T04:16:39.424Z,94420.95
2017-11-11T04:19:07.779Z,94410.88
2017-11-11T04:21:36.177Z,94406.52
2017-11-11T04:24:04.540Z,94407.70
2017-11-11T04:26:32.932Z,94397.45
2017-11-11T04:29:01.290Z,94408.15
2017-11-11T04:31:29.659Z,94403.39
2017-11-11T04:33:58.027Z,94408.64
2017-11-11T04:36:26.580Z,94402.59
2017-11-11T04:38:54.946Z,94387.70
2017-11-11T04:41:23.304Z,94398.77
2017-11-11T04:43:51.699Z,94408.73
2017-11-11T04:46:20.106Z,94407.86
2017-11-11T04:48:48.480Z,94411.66
2017-11-11T04:51:16.871Z,94400.31
2017-11-11T04:53:45.269Z,94394.73
2017-11-11T04:56:13.659Z,94392.12
2017-11-11T04:58:42.020Z,94397.95
2017-11-11T05:01:10.375Z,94403.00
2017-11-11T05:03:38.746Z,94400.00
2017-11-11T05:06:07.132Z,94405.64
2017-11-11T05:08:35.513Z,94398.56
2017-11-11T05:11:03.872Z,94398.22
2017-11-11T05:13:32.260Z,94400.91
2017-11-11T05:16:00.629Z,94401.72
2017-11-11T05:18:28.997Z,94398.69
2017-11-11T05:20:57.361Z,94396.53
2017-11-11T05:23:25.732Z,94396.59
2017-11-11T05:25:54.107Z,94402.88
2017-11-11T05:28:22.467Z,94392.58
2017-11-11T05:30:50.879Z,94390.19
2017-11-11T05:33:19.232Z,94383.74
2017-11-11T05:35:47.617Z,94382.36
2017-11-11T05:38:15.983Z,94380.43
2017-11-11T05:40:44.335Z,94375.23
2017-11-11T05:43:12.695Z,94376.39
2017-11-11T05:45:41.075Z,94365.74
2017-11-11T05:48:09.470Z,94366.02
2017-11-11T05:50:37.850Z,94361.28
2017-11-11T05:53:06.221Z,94360.00
2017-11-11T05:55:34.564Z,94362.36
2017-11-11T05:58:02.975Z,94363.78
2017-11-11T06:00:31.332Z,94364.99
2017-11-11T06:02:59.733Z,94357.73
2017-11-11T06:05:28.094Z,94350.30
2017-11-11T06:07:56.488Z,94357.20
2017-11-11T06:10:24.882Z,94358.23
2017-11-11T06:12:53.250Z,94348.23
2017-11-11T06:15:21.626Z,94357.08
2017-11-11T06:17:49.981Z,94362.87
2017-11-11T06:20:18.360Z,94348.48
2017-11-11T06:22:46.715Z,94344.75
2017-11-11T06:25:15.110Z,94355.18
2017-11-11T06:27:43.469Z,94345.64
2017-11-11T06:30:11.837Z,94352.00
2017-11-11T06:32:40.198Z,94349.12
2017-11-11T06:35:08.568Z,94347.54
2017-11-11T06:37:36.919Z,94353.83
2017-11-11T06:40:05.330Z,94345.80
2017-11-11T06:42:33.705Z,94351.25
2017-11-11T06:45:02.060Z,94348.00
2017-11-11T06:47:30.412Z,94360.95
2017-11-11T06:49:58.819Z,94341.74
2017-11-11T06:52:27.185Z,94335.52
2017-11-11T06:54:55.541Z,94334.73
2017-11-11T06:57:23.939Z,94326.17
2017-11-11T06:59:52.300Z,94333.73
2017-11-11T07:02:20.699Z,94326.64
2017-11-11T07:04:49.142Z,94325.91
2017-11-11T07:07:24.436Z,94326.37
2017-11-11T07:09:52.808Z,94322.95
2017-11-11T07:12:21.161Z,94318.69
2017-11-11T07:14:49.542Z,94329.83
2017-11-11T07:17:17.933Z,94324.23
2017-11-11T07:19:46.301Z,94320.78
2017-11-11T07:22:14.700Z,94322.87
2017-11-11T07:24:43.092Z,94308.80
2017-11-11T07:27:11.452Z,94311.31
2017-11-11T07:29:39.831Z,94307.09
2017-11-11T07:32:08.194Z,94314.15
2017-11-11T07:34:36.574Z,94315.30
2017-11-11T07:37:04.949Z,94314.00
2017-11-11T07:39:33.371Z,94310.23
2017-11-11T07:42:01.738Z,94319.49
2017-11-11T07:44:30.164Z,94304.69
2017-11-11T07:46:58.529Z,94310.39
2017-11-11T07:49:27.380Z,94309.57
2017-11-11T07:51:55.810Z,94313.17
2017-11-11T07:54:24.214Z,94312.28
2017-11-11T07:56:52.572Z,94304.57
2017-11-11T07:59:20.957Z,94298.60
2017-11-11T08:01:49.328Z,94301.01
2017-11-11T08:04:17.693Z,94294.61
2017-11-11T08:06:46.115Z,94288.91
2017-11-11T08:09:14.476Z,94291.80
2017-11-11T08:11:42.857Z,94290.40
2017-11-11T08:14:11.238Z,94293.88
2017-11-11T08:16:39.611Z,94298.29
2017-11-11T08:19:07.957Z,94300.36
2017-11-11T08:21:36.310Z,94293.32
2017-11-11T08:24:04.697Z,94294.63
2017-11-11T08:26:33.197Z,94293.74
2017-11-11T08:29:01.562Z,94293.09
2017-11-11T08:31:29.928Z,94285.95
2017-11-11T08:33:58.289Z,94286.52
2017-11-11T08:36:26.724Z,94279.59
2017-11-11T08:38:55.139Z,94272.00
2017-11-11T08:41:23.531Z,94277.66
2017-11-11T08:43:51.888Z,94277.36
2017-11-11T08:46:20.278Z,94280.16
2017-11-11T08:48:48.655Z,94281.97
2017-11-11T08:51:17.049Z,94292.27
2017-11-11T08:53:45.448Z,94274.41
2017-11-11T08:56:13.802Z,94272.00
2017-11-11T08:58:42.172Z,94266.88
2017-11-11T09:01:10.564Z,94268.70
2017-11-11T09:03:39.061Z,94258.63
2017-11-11T09:06:07.436Z,94267.36
2017-11-11T09:08:35.812Z,94260.50
2017-11-11T09:11:04.229Z,94271.20
2017-11-11T09:13:32.606Z,94261.27
2017-11-11T09:16:01.012Z,94260.95
2017-11-11T09:18:29.367Z,94261.15
2017-11-11T09:20:57.775Z,94249.83
2017-11-11T09:23:26.135Z,94253.13
2017-11-11T09:25:54.816Z,94243.32
2017-11-11T09:28:23.174Z,94241.50
2017-11-11T09:30:51.534Z,94235.84
2017-11-11T09:33:19.932Z,94239.78
2017-11-11T09:35:48.361Z,94236.41
2017-11-11T09:38:16.748Z,94228.45
2017-11-11T09:40:45.105Z,94231.67
2017-11-11T09:43:13.467Z,94236.29
2017-11-11T09:45:41.821Z,94224.67
2017-11-11T09:48:10.198Z,94228.22
2017-11-11T09:50:38.551Z,94225.18
2017-11-11T09:53:06.904Z,94221.47
2017-11-11T09:55:35.248Z,94209.91
2017-11-11T09:58:03.620Z,94217.72
2017-11-11T10:00:31.979Z,94211.73
2017-11-11T10:03:00.329Z,94214.00
2017-11-11T10:05:28.692Z,94209.98
2017-11-11T10:07:57.246Z,94208.16
2017-11-11T10:10:26.436Z,94206.89
2017-11-11T10:12:54.791Z,94204.80
2017-11-11T10:15:23.152Z,94193.87
2017-11-11T10:17:51.510Z,94188.48
2017-11-11T10:20:19.886Z,94182.40
2017-11-11T10:22:48.276Z,94178.48
2017-11-11T10:25:16.636Z,94176.53
2017-11-11T10:27:45.020Z,94175.67
2017-11-11T10:30:13.369Z,94165.30
2017-11-11T10:32:41.761Z,94154.61
2017-11-11T10:35:10.093Z,94163.28
2017-11-11T10:37:38.636Z,94148.64
2017-11-11T10:40:06.980Z,94155.53
2017-11-11T10:42:35.402Z,94144.47
2017-11-11T10:45:03.731Z,94132.20
2017-11-11T10:47:32.133Z,94140.06
2017-11-11T10:50:00.548Z,94132.49
2017-11-11T10:52:28.950Z,94126.63
2017-11-11T10:54:57.310Z,94129.09
2017-11-11T10:57:25.661Z,94123.19
2017-11-11T10:59:54.106Z,94123.82
2017-11-11T11:02:23.808Z,94121.58
2017-11-11T11:04:52.190Z,94115.48
2017-11-11T11:07:20.593Z,94102.31
2017-11-11T11:09:48.952Z,94102.63
2017-11-11T11:12:17.361Z,94107.31
2017-11-11T11:14:45.717Z,94097.48
2017-11-11T11:17:14.401Z,94087.19
2017-11-11T11:19:42.744Z,94085.71
2017-11-11T11:22:11.095Z,94077.84
2017-11-11T11:24:39.492Z,94083.97
2017-11-11T11:27:07.860Z,94077.25
2017-11-11T11:29:36.228Z,94071.37
2017-11-11T11:32:04.618Z,94066.50
2017-11-11T11:34:32.962Z,94066.30
2017-11-11T11:37:01.311Z,94055.36
2017-11-11T11:39:29.706Z,94047.95
2017-11-11T11:41:58.066Z,94039.53
2017-11-11T11:44:26.433Z,94036.62
2017-11-11T11:46:54.809Z,94035.23
2017-11-11T11:49:23.159Z,94037.25
2017-11-11T11:51:51.667Z,94040.53
2017-11-11T11:54:20.233Z,94035.44
2017-11-11T11:56:48.697Z,94034.10
2017-11-11T11:59:17.100Z,94035.38
2017-11-11T12:01:45.499Z,94031.30
2017-11-11T12:04:14.777Z,94026.81
2017-11-11T12:06:43.315Z,94027.48
2017-11-11T12:09:11.657Z,94019.81
2017-11-11T12:11:40.009Z,94022.16
2017-11-11T12:14:08.372Z,94019.99
2017-11-11T12:16:36.730Z,94014.01
2017-11-11T12:19:05.114Z,94016.48
2017-11-11T12:21:33.452Z,94012.16
2017-11-11T12:24:01.822Z,94014.83
2017-11-11T12:26:30.177Z,94013.17
2017-11-11T12:28:58.535Z,94005.41
2017-11-11T12:31:26.909Z,94003.88
2017-11-11T12:33:55.303Z,93997.39
2017-11-11T12:36:23.661Z,93990.43
2017-11-11T12:38:52.135Z,93996.88
2017-11-11T12:41:20.535Z,93990.19
2017-11-11T12:43:48.892Z,93992.39
2017-11-11T12:46:17.264Z,93996.63
2017-11-11T12:48:45.607Z,93994.44
2017-11-11T12:51:13.961Z,93991.14
2017-11-11T12:53:42.333Z,93986.91
2017-11-11T12:56:10.714Z,93988.62
2017-11-11T12:58:39.125Z,93985.73
2017-11-11T13:01:07.477Z,93985.67
2017-11-11T13:03:35.828Z,93979.63
2017-11-11T13:06:04.229Z,93979.70
2017-11-11T13:08:32.608Z,93971.81
2017-11-11T13:11:00.957Z,93977.39
2017-11-11T13:13:29.340Z,93973.34
2017-11-11T13:15:57.748Z,93975.37
2017-11-11T13:18:26.117Z,93968.91
2017-11-11T13:20:54.492Z,93958.24
2017-11-11T13:23:22.927Z,93954.22
2017-11-11T13:25:51.273Z,93964.53
2017-11-11T13:28:19.624Z,93951.98
2017-11-11T13:30:48.138Z,93951.81
2017-11-11T13:33:16.505Z,93945.41
2017-11-11T13:35:44.888Z,93945.28
2017-11-11T13:38:13.239Z,93941.94
2017-11-11T13:40:41.592Z,93947.38
2017-11-11T13:43:09.972Z,93941.70
2017-11-11T13:45:38.352Z,93951.36
2017-11-11T13:48:06.713Z,93942.77
2017-11-11T13:50:35.097Z,93941.11
2017-11-11T13:53:03.445Z,93943.34
2017-11-11T13:55:32.054Z,93940.58
2017-11-11T13:58:00.439Z,93945.74
2017-11-11T14:00:28.796Z,93935.87
2017-11-11T14:02:57.157Z,93933.73
2017-11-11T14:05:25.525Z,93934.03
2017-11-11T14:07:53.882Z,93932.11
2017-11-11T14:10:22.228Z,93931.23
2017-11-11T14:15:47.490Z,93927.63
2017-11-11T14:18:15.866Z,93932.73
2017-11-11T14:20:44.320Z,93929.05
2017-11-11T14:23:12.858Z,93925.80
2017-11-11T14:25:41.318Z,93925.66
2017-11-11T14:28:09.686Z,93916.18
2017-11-11T14:30:38.107Z,93916.50
2017-11-11T14:33:06.507Z,93915.48
2017-11-11T14:35:34.901Z,93915.83
2017-11-11T14:38:03.253Z,93913.31
2017-11-11T14:40:32.553Z,93914.79
2017-11-11T14:43:00.981Z,93910.70
2017-11-11T14:45:30.301Z,93913.50
2017-11-11T14:47:59.584Z,93914.42
2017-11-11T14:50:27.934Z,93906.27
2017-11-11T14:52:56.328Z,93906.88
2017-11-11T14:55:24.712Z,93904.55
2017-11-11T14:57:53.066Z,93908.01
2017-11-11T15:00:23.329Z,93907.16
2017-11-11T15:02:51.786Z,93904.29
2017-11-11T15:05:20.145Z,93903.27
2017-11-11T15:07:48.533Z,93903.45
2017-11-11T15:10:16.912Z,93905.13
2017-11-11T15:12:45.327Z,93900.88
2017-11-11T15:15:13.701Z,93905.64
2017-11-11T15:17:42.090Z,93905.18
2017-11-11T15:20:10.485Z,93910.19
2017-11-11T15:22:38.859Z,93914.16
2017-11-11T15:25:07.254Z,93910.50
2017-11-11T15:27:35.669Z,93913.59
2017-11-11T15:30:04.027Z,93901.05
2017-11-11T15:32:32.492Z,93901.34
2017-11-11T15:35:01.013Z,93899.81
2017-11-11T15:37:29.357Z,93902.64
2017-11-11T15:39:57.757Z,93910.63
2017-11-11T15:42:26.131Z,93913.98
2017-11-11T15:44:54.542Z,93909.55
2017-11-11T15:47:23.191Z,93908.06
2017-11-11T15:49:51.657Z,93915.62
2017-11-11T15:52:21.960Z,93922.16
2017-11-11T15:54:51.557Z,93917.86
2017-11-11T15:57:19.988Z,93925.68
2017-11-11T15:59:48.353Z,93917.11
2017-11-11T16:02:16.716Z,93921.92
2017-11-11T16:04:45.094Z,93922.73
2017-11-11T16:07:13.655Z,93928.70
2017-11-11T16:09:42.047Z,93929.20
2017-11-11T16:12:10.460Z,93936.06
2017-11-11T16:14:38.841Z,93925.06
2017-11-11T16:17:07.221Z,93928.50
2017-11-11T16:19:35.669Z,93927.91
2017-11-11T16:22:04.201Z,93921.65
2017-11-11T16:24:32.633Z,93919.91
2017-11-11T16:27:00.990Z,93918.78
2017-11-11T16:29:29.361Z,93910.95
2017-11-11T16:31:58.633Z,93914.86
2017-11-11T16:34:27.013Z,93914.04
2017-11-11T16:36:55.382Z,93916.20
2017-11-11T16:39:23.804Z,93931.64
2017-11-11T16:41:52.177Z,93933.42
2017-11-11T16:44:20.573Z,93942.09
2017-11-11T16:46:48.971Z,93944.88
2017-11-11T16:49:17.321Z,93954.20
2017-11-11T16:51:45.673Z,93961.67
2017-11-11T16:54:14.981Z,93954.88
2017-11-11T16:56:43.361Z,93961.32
2017-11-11T16:59:12.073Z,93956.77
2017-11-11T17:01:40.461Z,93960.81
2017-11-11T17:04:08.828Z,93964.36
2017-11-11T17:06:37.245Z,93967.27
2017-11-11T17:09:05.655Z,93967.05
2017-11-11T17:11:34.049Z,93960.98
2017-11-11T17:14:02.409Z,93959.53
2017-11-11T17:16:30.808Z,93961.08
2017-11-11T17:19:00.053Z,93959.12
2017-11-11T17:21:28.429Z,93961.56
2017-11-11T17:23:56.833Z,93956.31
2017-11-11T17:26:25.225Z,93962.86
2017-11-11T17:28:53.589Z,93973.04
2017-11-11T17:31:22.005Z,93967.27
2017-11-11T17:33:50.370Z,93975.25
2017-11-11T17:36:18.723Z,93971.23
2017-11-11T17:38:47.069Z,93973.61
2017-11-11T17:41:15.426Z,93975.78
2017-11-11T17:43:43.823Z,93978.25
2017-11-11T17:46:12.231Z,93979.53
2017-11-11T17:48:40.622Z,93970.03
2017-11-11T17:51:09.074Z,93978.98
2017-11-11T17:53:37.469Z,93979.70
2017-11-11T17:56:05.901Z,93980.66
2017-11-11T17:58:34.326Z,93979.55
2017-11-11T18:01:02.772Z,93989.13
2017-11-11T18:03:31.147Z,93990.23
2017-11-11T18:05:59.505Z,93991.79
2017-11-11T18:08:27.924Z,93997.84
2017-11-11T18:10:56.294Z,93996.09
2017-11-11T18:13:25.614Z,93994.52
2017-11-11T18:15:53.977Z,94001.19
2017-11-11T18:18:22.333Z,93996.55
2017-11-11T18:20:50.698Z,93999.42
2017-11-11T18:23:19.068Z,94003.52
2017-11-11T18:25:47.437Z,94002.20
2017-11-11T18:28:16.723Z,94007.78
2017-11-11T18:30:45.124Z,93998.48
2017-11-11T18:33:13.502Z,94010.37
2017-11-11T18:35:42.832Z,94000.52
2017-11-11T18:38:11.218Z,94005.65
2017-11-11T18:40:41.500Z,94005.04
2017-11-11T18:43:09.882Z,94005.81
2017-11-11T18:45:38.380Z,94007.70
2017-11-11T18:48:06.796Z,94009.36
2017-11-11T18:50:35.182Z,94014.09
2017-11-11T18:53:04.746Z,94014.77
2017-11-11T18:55:33.150Z,94008.72
2017-11-11T18:58:01.554Z,94021.06
2017-11-11T19:00:30.107Z,94025.74
2017-11-11T19:02:58.480Z,94020.63
2017-11-11T19:05:26.838Z,94027.95
2017-11-11T19:07:56.434Z,94028.97
2017-11-11T19:10:24.784Z,94025.50
2017-11-11T19:12:53.136Z,94028.88
2017-11-11T19:15:21.504Z,94033.95
2017-11-11T19:17:50.792Z,94027.60
2017-11-11T19:20:19.147Z,94020.20
2017-11-11T19:22:48.417Z,94025.11
2017-11-11T19:25:16.892Z,94034.64
2017-11-11T19:27:45.347Z,94044.88
2017-11-11T19:30:13.958Z,94046.36
2017-11-11T19:32:42.369Z,94041.36
2017-11-11T19:35:10.795Z,94039.67
2017-11-11T19:37:39.188Z,94048.70
2017-11-11T19:40:07.786Z,94055.98
2017-11-11T19:42:36.195Z,94054.44
2017-11-11T19:45:08.246Z,94051.74
2017-11-11T19:47:38.006Z,94058.31
2017-11-11T19:50:06.481Z,94056.94
2017-11-11T19:52:34.882Z,94060.72
2017-11-11T19:55:03.356Z,94072.23
2017-11-11T19:57:31.922Z,94061.88
2017-11-11T20:00:00.294Z,94065.77
2017-11-11T20:02:28.660Z,94068.38
2017-11-11T20:04:57.226Z,94070.84
2017-11-11T20:07:26.547Z,94075.17
2017-11-11T20:09:54.949Z,94078.78
2017-11-11T20:12:24.285Z,94079.02
2017-11-11T20:14:52.689Z,94076.89
2017-11-11T20:17:21.048Z,94080.14
2017-11-11T20:19:49.428Z,94083.17
2017-11-11T20:22:17.830Z,94084.36
2017-11-11T20:24:46.189Z,94080.95
2017-11-11T20:27:14.576Z,94084.75
2017-11-11T20:29:42.939Z,94083.34
2017-11-11T20:32:11.301Z,94089.86
2017-11-11T20:34:39.670Z,94092.76
2017-11-11T20:37:08.049Z,94093.35
2017-11-11T20:39:36.449Z,94098.08
2017-11-11T20:42:04.858Z,94105.44
2017-11-11T20:44:36.644Z,94109.21
2017-11-11T20:47:05.124Z,94103.04
2017-11-11T20:49:33.825Z,94095.91
2017-11-11T20:52:02.282Z,94109.22
2017-11-11T20:54:30.648Z,94110.93
2017-11-11T20:56:59.020Z,94110.11
2017-11-11T20:59:27.417Z,94112.43
2017-11-11T21:01:55.817Z,94118.89
2017-11-11T21:04:24.191Z,94122.13
2017-11-11T21:06:52.578Z,94116.56
2017-11-11T21:09:20.928Z,94121.68
2017-11-11T21:11:49.317Z,94119.45
2017-11-11T21:14:17.668Z,94128.42
2017-11-11T21:16:46.059Z,94121.77
2017-11-11T21:19:14.471Z,94120.95
2017-11-11T21:21:42.870Z,94119.64
2017-11-11T21:24:11.270Z,94119.41
2017-11-11T21:26:39.635Z,94119.22
2017-11-11T21:29:08.057Z,94126.02
2017-11-11T21:31:36.477Z,94128.75
2017-11-11T21:34:05.799Z,94134.37
2017-11-11T21:36:35.109Z,94130.81
2017-11-11T21:39:03.497Z,94133.98
2017-11-11T21:41:31.862Z,94138.19
2017-11-11T21:44:01.130Z,94139.48
2017-11-11T21:46:29.560Z,94141.20
2017-11-11T21:48:58.982Z,94143.05
2017-11-11T21:51:27.457Z,94140.14
2017-11-11T21:53:55.834Z,94138.01
2017-11-11T21:56:24.208Z,94136.48
2017-11-11T21:58:52.589Z,94133.08
2017-11-11T22:01:21.881Z,94145.22
2017-11-11T22:03:50.291Z,94143.67
2017-11-11T22:06:18.648Z,94142.16
2017-11-11T22:08:47.025Z,94140.03
2017-11-11T22:11:15.382Z,94138.52
2017-11-11T22:13:43.796Z,94134.13
2017-11-11T22:16:12.170Z,94136.91
2017-11-11T22:18:40.602Z,94137.22
2017-11-11T22:21:09.042Z,94135.81
2017-11-11T22:23:37.490Z,94133.53
2017-11-11T22:26:05.888Z,94137.81
2017-11-11T22:28:34.268Z,94137.03
2017-11-11T22:31:02.640Z,94137.05
2017-11-11T22:33:31.018Z,94141.82
2017-11-11T22:35:59.383Z,94128.36
2017-11-11T22:38:27.733Z,94131.76
2017-11-11T22:40:56.097Z,94132.91
2017-11-11T22:43:24.461Z,94130.35
2017-11-11T22:45:52.855Z,94135.48
2017-11-11T22:48:21.229Z,94130.98
2017-11-11T22:50:49.585Z,94132.70
2017-11-11T22:53:17.993Z,94130.52
2017-11-11T22:55:46.354Z,94135.94
2017-11-11T22:58:14.751Z,94135.71
2017-11-11T23:00:43.136Z,94129.64
2017-11-11T23:03:11.527Z,94143.48
2017-11-11T23:05:39.937Z,94138.17
2017-11-11T23:08:08.340Z,94130.09
2017-11-11T23:10:36.729Z,94135.22
2017-11-11T23:13:05.093Z,94138.99
2017-11-11T23:15:33.611Z,94142.64
2017-11-11T23:18:01.957Z,94137.38
2017-11-11T23:20:30.310Z,94138.02
2017-11-11T23:22:58.696Z,94145.45
2017-11-11T23:25:27.058Z,94145.95
2017-11-11T23:27:55.461Z,94142.25
2017-11-11T23:30:23.831Z,94141.34
2017-11-11T23:32:52.197Z,94147.70
2017-11-11T23:35:20.578Z,94145.45
2017-11-11T23:37:48.955Z,94136.80
2017-11-11T23:40:17.317Z,94138.19
2017-11-11T23:42:45.673Z,94131.41
2017-11-11T23:45:14.038Z,94137.30
2017-11-11T23:47:42.397Z,94132.19
2017-11-11T23:50:10.809Z,94129.55
2017-11-11T23:52:39.153Z,94124.28
2017-11-11T23:55:07.521Z,94129.12
2017-11-11T23:57:35.901Z,94118.67
